createdAt,value
2023-05-02T00:02:39.628Z,13.99
2023-05-02T00:05:41.191Z,13.91
2023-05-02T00:08:42.730Z,13.84
2023-05-02T00:11:44.111Z,13.80
2023-05-02T00:14:45.667Z,13.81
2023-05-02T00:17:47.362Z,13.81
2023-05-02T00:20:50.145Z,13.82
2023-05-02T00:23:51.645Z,13.82
2023-05-02T00:26:53.041Z,13.82
2023-05-02T00:29:54.992Z,13.82
2023-05-02T00:32:56.516Z,13.80
2023-05-02T00:35:57.999Z,13.79
2023-05-02T00:38:59.453Z,13.74
2023-05-02T00:42:01.374Z,13.62
2023-05-02T00:45:06.207Z,13.59
2023-05-02T00:48:09.236Z,13.55
2023-05-02T00:51:12.370Z,13.43
2023-05-02T00:54:14.346Z,13.34
2023-05-02T00:57:15.984Z,13.26
2023-05-02T01:00:17.490Z,13.20
2023-05-02T01:03:55.096Z,13.22
2023-05-02T01:07:09.370Z,13.18
2023-05-02T01:10:25.983Z,13.13
2023-05-02T01:13:33.950Z,13.04
2023-05-02T01:16:40.477Z,13.01
2023-05-02T01:19:49.254Z,12.98
2023-05-02T01:22:52.615Z,12.91
2023-05-02T01:26:16.690Z,12.79
2023-05-02T01:29:22.634Z,12.68
2023-05-02T01:32:26.333Z,12.68
2023-05-02T01:35:30.556Z,12.57
2023-05-02T01:38:34.733Z,12.47
2023-05-02T01:41:37.614Z,12.33
2023-05-02T01:44:41.125Z,12.25
2023-05-02T01:47:44.250Z,12.17
2023-05-02T01:50:48.029Z,12.13
2023-05-02T01:53:50.863Z,12.16
2023-05-02T01:56:52.696Z,12.16
2023-05-02T01:59:57.046Z,12.08
2023-05-02T02:03:00.078Z,11.97
2023-05-02T02:06:03.697Z,12.00
2023-05-02T02:09:05.985Z,11.96
2023-05-02T02:12:22.400Z,11.83
2023-05-02T02:15:34.187Z,11.92
2023-05-02T02:18:38.097Z,11.91
2023-05-02T02:21:42.348Z,11.94
2023-05-02T02:24:46.334Z,11.96
2023-05-02T02:27:49.008Z,11.88
2023-05-02T02:30:50.739Z,11.84
2023-05-02T02:33:52.584Z,11.75
2023-05-02T02:37:15.492Z,11.65
2023-05-02T02:40:20.886Z,11.58
2023-05-02T02:43:41.098Z,11.45
2023-05-02T02:46:50.537Z,11.32
2023-05-02T02:50:31.331Z,11.31
2023-05-02T02:54:00.283Z,11.35
2023-05-02T02:57:07.599Z,11.43
2023-05-02T03:00:15.907Z,11.49
2023-05-02T03:03:18.949Z,11.50
2023-05-02T03:06:20.795Z,11.41
2023-05-02T03:09:22.565Z,11.26
2023-05-02T03:12:25.590Z,11.20
2023-05-02T03:16:12.157Z,11.31
2023-05-02T03:19:13.638Z,11.39
2023-05-02T03:22:15.232Z,11.45
2023-05-02T03:25:16.765Z,11.46
2023-05-02T03:28:21.468Z,11.33
2023-05-02T03:31:26.382Z,11.26
2023-05-02T03:34:28.579Z,11.22
2023-05-02T03:37:30.978Z,11.24
2023-05-02T03:40:34.533Z,11.25
2023-05-02T03:43:36.206Z,11.23
2023-05-02T03:46:38.133Z,11.11
2023-05-02T03:49:43.273Z,11.01
2023-05-02T03:52:45.670Z,10.94
2023-05-02T03:55:48.078Z,10.83
2023-05-02T03:58:59.453Z,10.75
2023-05-02T04:02:02.227Z,10.91
2023-05-02T04:05:12.592Z,10.91
2023-05-02T04:08:15.024Z,10.82
2023-05-02T04:11:17.124Z,10.76
2023-05-02T04:14:18.989Z,10.76
2023-05-02T04:17:21.451Z,10.73
2023-05-02T04:20:25.097Z,10.70
2023-05-02T04:23:28.901Z,10.72
2023-05-02T04:26:34.364Z,10.65
2023-05-02T04:29:41.178Z,10.57
2023-05-02T04:32:44.185Z,10.61
2023-05-02T04:35:46.764Z,10.63
2023-05-02T04:38:49.424Z,10.56
2023-05-02T04:41:52.076Z,10.59
2023-05-02T04:44:54.903Z,10.57
2023-05-02T04:47:56.758Z,10.47
2023-05-02T04:50:58.213Z,10.40
2023-05-02T04:53:59.816Z,10.34
2023-05-02T04:57:03.631Z,10.33
2023-05-02T05:00:08.446Z,10.25
2023-05-02T05:03:10.593Z,10.19
2023-05-02T05:06:12.576Z,10.21
2023-05-02T05:09:14.159Z,10.24
2023-05-02T05:12:15.599Z,10.28
2023-05-02T05:15:18.073Z,10.33
2023-05-02T05:18:25.781Z,10.31
2023-05-02T05:21:28.316Z,10.34
2023-05-02T05:24:30.638Z,10.47
2023-05-02T05:27:34.446Z,10.59
2023-05-02T05:30:36.061Z,10.72
2023-05-02T05:33:39.882Z,10.84
2023-05-02T05:36:43.468Z,10.92
2023-05-02T05:39:44.914Z,10.95
2023-05-02T05:42:47.649Z,11.00
2023-05-02T05:45:56.856Z,11.05
2023-05-02T05:48:59.210Z,11.20
2023-05-02T05:52:02.814Z,11.24
2023-05-02T05:55:05.509Z,11.26
2023-05-02T05:58:08.503Z,11.21
2023-05-02T06:01:11.728Z,11.29
2023-05-02T06:04:13.336Z,11.34
2023-05-02T06:07:18.266Z,11.43
2023-05-02T06:10:21.296Z,11.24
2023-05-02T06:13:22.946Z,11.15
2023-05-02T06:16:25.404Z,11.29
2023-05-02T06:19:26.894Z,11.28
2023-05-02T06:22:28.309Z,11.37
2023-05-02T06:25:29.906Z,11.39
2023-05-02T06:28:31.917Z,11.51
2023-05-02T06:31:33.385Z,11.58
2023-05-02T06:34:34.886Z,11.67
2023-05-02T06:37:36.500Z,11.79
2023-05-02T06:40:45.029Z,11.92
2023-05-02T06:43:46.487Z,11.99
2023-05-02T06:46:47.995Z,12.05
2023-05-02T06:49:50.954Z,12.11
2023-05-02T06:52:52.333Z,12.24
2023-05-02T06:55:53.787Z,12.38
2023-05-02T06:58:55.309Z,12.62
2023-05-02T07:01:56.701Z,12.81
2023-05-02T07:04:58.078Z,12.93
2023-05-02T07:07:59.614Z,13.09
2023-05-02T07:11:02.161Z,13.16
2023-05-02T07:14:03.580Z,13.33
2023-05-02T07:17:05.127Z,13.45
2023-05-02T07:20:07.668Z,13.48
2023-05-02T07:23:09.326Z,13.41
2023-05-02T07:26:11.222Z,13.51
2023-05-02T07:29:12.654Z,13.67
2023-05-02T07:32:14.106Z,13.87
2023-05-02T07:35:15.649Z,13.96
2023-05-02T07:38:17.198Z,13.95
2023-05-02T07:41:18.576Z,13.78
2023-05-02T07:44:21.382Z,14.00
2023-05-02T07:47:22.888Z,14.13
2023-05-02T07:50:24.367Z,14.26
2023-05-02T07:53:26.205Z,14.45
2023-05-02T07:56:28.100Z,14.52
2023-05-02T07:59:31.147Z,14.54
2023-05-02T08:02:32.858Z,14.52
2023-05-02T08:05:34.366Z,14.45
2023-05-02T08:08:36.031Z,14.25
2023-05-02T08:11:37.460Z,14.05
2023-05-02T08:14:38.992Z,13.93
2023-05-02T08:17:40.438Z,13.99
2023-05-02T08:20:43.201Z,14.19
2023-05-02T08:23:46.183Z,14.43
2023-05-02T08:26:47.632Z,14.61
2023-05-02T08:29:49.079Z,14.86
2023-05-02T08:32:50.600Z,14.97
2023-05-02T08:35:52.875Z,14.86
2023-05-02T08:38:54.384Z,15.01
2023-05-02T08:41:55.787Z,15.23
2023-05-02T08:44:57.934Z,15.27
2023-05-02T08:48:00.195Z,15.29
2023-05-02T08:51:02.924Z,15.10
2023-05-02T08:54:07.466Z,15.14
2023-05-02T08:57:08.916Z,15.03
2023-05-02T09:00:11.411Z,14.97
2023-05-02T09:03:31.287Z,15.09
2023-05-02T09:06:32.788Z,15.15
2023-05-02T09:09:34.439Z,15.49
2023-05-02T09:12:35.870Z,15.79
2023-05-02T09:15:37.457Z,15.82
2023-05-02T09:18:49.647Z,15.83
2023-05-02T09:21:51.045Z,15.66
2023-05-02T09:24:55.645Z,15.58
2023-05-02T09:27:57.200Z,15.40
2023-05-02T09:31:14.074Z,15.32
2023-05-02T09:34:17.374Z,15.46
2023-05-02T09:37:35.638Z,15.43
2023-05-02T09:40:37.721Z,15.39
2023-05-02T09:43:40.148Z,15.45
2023-05-02T09:46:43.045Z,15.71
2023-05-02T09:49:46.288Z,15.86
2023-05-02T09:53:01.266Z,15.76
2023-05-02T09:56:04.406Z,15.54
2023-05-02T09:59:14.482Z,15.38
2023-05-02T10:02:16.025Z,15.35
2023-05-02T10:05:18.036Z,15.54
2023-05-02T10:08:20.447Z,15.79
2023-05-02T10:11:22.539Z,16.04
2023-05-02T10:14:29.480Z,16.08
2023-05-02T10:17:34.090Z,15.81
2023-05-02T10:20:41.303Z,15.94
2023-05-02T10:23:46.375Z,16.25
2023-05-02T10:26:48.407Z,16.65
2023-05-02T10:29:51.782Z,16.68
2023-05-02T10:32:56.751Z,16.65
2023-05-02T10:35:58.613Z,16.83
2023-05-02T10:39:00.998Z,16.55
2023-05-02T10:42:04.531Z,16.80
2023-05-02T10:45:11.966Z,16.59
2023-05-02T10:48:26.651Z,15.97
2023-05-02T10:51:31.933Z,15.53
2023-05-02T10:54:33.340Z,15.36
2023-05-02T10:57:34.861Z,15.35
2023-05-02T11:00:36.512Z,15.45
2023-05-02T11:03:57.480Z,15.58
2023-05-02T11:07:02.148Z,15.68
2023-05-02T11:10:20.251Z,15.75
2023-05-02T11:13:50.709Z,15.95
2023-05-02T11:16:58.673Z,15.88
2023-05-02T11:20:01.651Z,16.03
2023-05-02T11:23:15.414Z,16.04
2023-05-02T11:26:23.169Z,16.33
2023-05-02T11:29:51.573Z,16.58
2023-05-02T11:32:53.476Z,16.54
2023-05-02T11:35:56.867Z,16.53
2023-05-02T11:38:58.322Z,16.91
2023-05-02T11:41:59.735Z,17.02
2023-05-02T11:45:01.568Z,17.17
2023-05-02T11:48:07.313Z,17.38
2023-05-02T11:51:08.929Z,17.63
2023-05-02T11:54:18.641Z,17.52
2023-05-02T11:57:20.115Z,17.37
2023-05-02T12:00:27.387Z,17.07
2023-05-02T12:03:31.400Z,17.16
2023-05-02T12:06:33.693Z,17.40
2023-05-02T12:09:35.117Z,17.91
2023-05-02T12:12:37.313Z,18.30
2023-05-02T12:15:38.932Z,17.62
2023-05-02T12:18:40.853Z,17.43
2023-05-02T12:21:42.458Z,17.81
2023-05-02T12:24:44.360Z,18.27
2023-05-02T12:28:02.389Z,18.42
2023-05-02T12:31:10.995Z,17.98
2023-05-02T12:34:12.436Z,18.14
2023-05-02T12:37:23.214Z,18.65
2023-05-02T12:40:25.973Z,18.63
2023-05-02T12:43:27.376Z,18.52
2023-05-02T12:46:29.458Z,18.73
2023-05-02T12:49:31.066Z,19.19
2023-05-02T12:52:59.047Z,18.84
2023-05-02T12:56:03.716Z,18.99
2023-05-02T12:59:05.768Z,19.42
2023-05-02T13:02:07.588Z,19.42
2023-05-02T13:05:16.142Z,19.08
2023-05-02T13:08:17.512Z,19.04
2023-05-02T13:11:20.471Z,18.64
2023-05-02T13:14:21.965Z,18.83
2023-05-02T13:17:23.525Z,19.06
2023-05-02T13:20:25.192Z,19.28
2023-05-02T13:23:26.641Z,19.10
2023-05-02T13:26:28.154Z,19.53
2023-05-02T13:29:29.744Z,19.72
2023-05-02T13:32:31.330Z,19.87
2023-05-02T13:35:33.522Z,19.90
2023-05-02T13:38:36.715Z,20.05
2023-05-02T13:41:38.148Z,19.98
2023-05-02T13:44:39.651Z,19.98
2023-05-02T13:47:41.655Z,19.84
2023-05-02T13:50:43.302Z,19.83
2023-05-02T13:53:45.245Z,20.04
2023-05-02T13:56:46.713Z,19.95
2023-05-02T13:59:48.158Z,19.95
2023-05-02T14:02:49.615Z,20.01
2023-05-02T14:05:51.165Z,20.29
2023-05-02T14:08:52.664Z,20.44
2023-05-02T14:11:54.177Z,20.50
2023-05-02T14:14:55.628Z,20.81
2023-05-02T14:17:58.045Z,20.82
2023-05-02T14:21:00.091Z,20.64
2023-05-02T14:24:01.664Z,19.80
2023-05-02T14:27:04.545Z,19.86
2023-05-02T14:30:07.187Z,20.09
2023-05-02T14:33:08.777Z,19.91
2023-05-02T14:36:10.272Z,20.05
2023-05-02T14:39:11.666Z,20.45
2023-05-02T14:42:13.063Z,20.59
2023-05-02T14:45:14.595Z,20.21
2023-05-02T14:48:17.401Z,20.05
2023-05-02T14:51:19.000Z,19.99
2023-05-02T14:54:20.572Z,20.13
2023-05-02T14:57:21.956Z,20.40
2023-05-02T15:00:23.714Z,20.67
2023-05-02T15:03:25.449Z,20.61
2023-05-02T15:06:32.961Z,20.47
2023-05-02T15:09:34.462Z,20.83
2023-05-02T15:12:35.881Z,20.75
2023-05-02T15:15:37.443Z,20.51
2023-05-02T15:18:38.952Z,20.34
2023-05-02T15:21:40.547Z,20.17
2023-05-02T15:24:42.126Z,20.26
2023-05-02T15:27:44.192Z,20.14
2023-05-02T15:30:45.985Z,19.92
2023-05-02T15:33:47.796Z,19.98
2023-05-02T15:36:49.172Z,20.10
2023-05-02T15:39:51.882Z,20.09
2023-05-02T15:42:53.305Z,20.33
2023-05-02T15:45:59.625Z,20.09
2023-05-02T15:49:01.208Z,20.30
2023-05-02T15:52:03.157Z,20.43
2023-05-02T15:55:05.063Z,20.79
2023-05-02T15:58:06.588Z,20.46
2023-05-02T16:01:08.185Z,20.37
2023-05-02T16:04:09.899Z,20.34
2023-05-02T16:07:11.429Z,20.20
2023-05-02T16:10:12.945Z,20.61
2023-05-02T16:13:14.391Z,20.52
2023-05-02T16:16:15.907Z,20.52
2023-05-02T16:19:17.894Z,20.05
2023-05-02T16:22:19.462Z,19.54
2023-05-02T16:25:21.111Z,19.90
2023-05-02T16:28:22.478Z,19.80
2023-05-02T16:31:23.953Z,19.52
2023-05-02T16:34:25.769Z,19.58
2023-05-02T16:37:27.245Z,19.44
2023-05-02T16:40:28.693Z,19.75
2023-05-02T16:43:30.100Z,19.55
2023-05-02T16:46:31.744Z,19.51
2023-05-02T16:49:33.487Z,19.06
2023-05-02T16:52:37.446Z,19.01
2023-05-02T16:55:38.952Z,18.81
2023-05-02T16:58:42.256Z,18.56
2023-05-02T17:01:43.660Z,18.54
2023-05-02T17:04:45.049Z,18.58
2023-05-02T17:07:46.585Z,18.41
2023-05-02T17:10:49.902Z,18.39
2023-05-02T17:13:52.484Z,18.43
2023-05-02T17:16:53.899Z,18.48
2023-05-02T17:19:55.466Z,18.44
2023-05-02T17:22:57.621Z,18.49
2023-05-02T17:25:59.258Z,18.48
2023-05-02T17:29:00.738Z,18.55
2023-05-02T17:32:02.467Z,18.53
2023-05-02T17:35:04.380Z,18.47
2023-05-02T17:38:05.867Z,18.25
2023-05-02T17:41:07.322Z,18.16
2023-05-02T17:44:10.058Z,18.15
2023-05-02T17:47:12.069Z,18.13
2023-05-02T17:50:15.052Z,18.11
2023-05-02T17:53:16.819Z,18.09
2023-05-02T17:56:21.276Z,17.81
2023-05-02T17:59:22.885Z,17.58
2023-05-02T18:02:25.794Z,17.49
2023-05-02T18:05:27.954Z,17.47
2023-05-02T18:08:31.185Z,17.30
2023-05-02T18:11:33.084Z,17.18
2023-05-02T18:14:34.840Z,17.12
2023-05-02T18:17:37.452Z,17.02
2023-05-02T18:20:40.509Z,16.89
2023-05-02T18:23:42.537Z,16.84
2023-05-02T18:26:43.945Z,16.68
2023-05-02T18:29:45.395Z,16.59
2023-05-02T18:32:46.961Z,16.52
2023-05-02T18:35:48.947Z,16.33
2023-05-02T18:38:50.372Z,16.21
2023-05-02T18:41:51.746Z,16.04
2023-05-02T18:44:53.303Z,15.89
2023-05-02T18:47:54.791Z,15.79
2023-05-02T18:50:56.798Z,15.78
2023-05-02T18:53:58.210Z,15.74
2023-05-02T18:57:02.744Z,15.65
2023-05-02T19:00:06.440Z,15.60
2023-05-02T19:03:08.002Z,15.50
2023-05-02T19:06:10.233Z,15.32
2023-05-02T19:09:15.711Z,15.25
2023-05-02T19:12:17.125Z,15.17
2023-05-02T19:15:18.851Z,15.00
2023-05-02T19:18:23.074Z,14.93
2023-05-02T19:21:24.486Z,14.89
2023-05-02T19:24:27.494Z,14.82
2023-05-02T19:27:29.256Z,14.71
2023-05-02T19:30:30.669Z,14.64
2023-05-02T19:33:32.081Z,14.64
2023-05-02T19:36:34.647Z,14.53
2023-05-02T19:39:36.539Z,14.43
2023-05-02T19:42:39.245Z,14.32
2023-05-02T19:45:40.875Z,14.15
2023-05-02T19:48:42.489Z,14.06
2023-05-02T19:51:43.975Z,14.03
2023-05-02T19:54:45.539Z,14.00
2023-05-02T19:57:50.164Z,13.94
2023-05-02T20:00:52.769Z,13.91
2023-05-02T20:03:54.830Z,13.87
2023-05-02T20:06:56.265Z,13.76
2023-05-02T20:09:58.568Z,13.71
2023-05-02T20:13:00.010Z,13.62
2023-05-02T20:16:01.646Z,13.59
2023-05-02T20:19:04.152Z,13.52
2023-05-02T20:22:05.677Z,13.49
2023-05-02T20:25:09.558Z,13.38
2023-05-02T20:28:10.988Z,13.33
2023-05-02T20:31:12.417Z,13.28
2023-05-02T20:34:13.886Z,13.22
2023-05-02T20:37:15.771Z,13.14
2023-05-02T20:40:18.891Z,13.14
2023-05-02T20:43:22.935Z,13.09
2023-05-02T20:46:24.391Z,13.05
2023-05-02T20:49:26.008Z,13.03
2023-05-02T20:52:27.386Z,12.89
2023-05-02T20:55:29.549Z,12.90
2023-05-02T20:58:31.493Z,12.86
2023-05-02T21:01:33.476Z,12.99
2023-05-02T21:04:34.953Z,12.95
2023-05-02T21:07:36.555Z,12.95
2023-05-02T21:10:38.062Z,12.87
2023-05-02T21:13:39.429Z,12.81
2023-05-02T21:16:40.850Z,12.85
2023-05-02T21:19:42.237Z,12.65
2023-05-02T21:22:43.671Z,12.61
2023-05-02T21:25:45.245Z,12.71
2023-05-02T21:28:46.701Z,12.70
2023-05-02T21:31:48.171Z,12.65
2023-05-02T21:34:49.573Z,12.55
2023-05-02T21:37:50.935Z,12.51
2023-05-02T21:40:53.137Z,12.59
2023-05-02T21:43:54.699Z,12.63
2023-05-02T21:46:56.135Z,12.65
2023-05-02T21:49:57.588Z,12.56
2023-05-02T21:52:58.976Z,12.55
2023-05-02T21:56:00.780Z,12.57
2023-05-02T21:59:02.817Z,12.30
2023-05-02T22:02:04.239Z,12.21
2023-05-02T22:05:05.836Z,12.18
2023-05-02T22:08:08.983Z,12.32
2023-05-02T22:11:10.502Z,12.31
2023-05-02T22:14:11.903Z,12.34
2023-05-02T22:17:13.661Z,12.33
2023-05-02T22:20:15.114Z,12.34
2023-05-02T22:23:16.547Z,12.33
2023-05-02T22:26:17.918Z,12.23
2023-05-02T22:29:19.281Z,12.20
2023-05-02T22:32:22.352Z,12.17
2023-05-02T22:35:23.728Z,12.02
2023-05-02T22:38:25.219Z,12.04
2023-05-02T22:41:26.588Z,12.02
2023-05-02T22:44:28.004Z,12.06
2023-05-02T22:47:29.614Z,12.06
2023-05-02T22:50:31.077Z,11.86
2023-05-02T22:53:32.455Z,11.93
2023-05-02T22:56:34.267Z,11.94
2023-05-02T22:59:35.713Z,11.93
2023-05-02T23:02:37.530Z,11.81
2023-05-02T23:05:39.158Z,11.66
2023-05-02T23:08:40.582Z,11.43
2023-05-02T23:11:42.042Z,11.31
2023-05-02T23:14:44.862Z,11.07
2023-05-02T23:17:46.295Z,10.99
2023-05-02T23:20:47.704Z,10.91
2023-05-02T23:23:49.100Z,10.97
2023-05-02T23:26:50.940Z,10.96
2023-05-02T23:29:52.359Z,11.02
2023-05-02T23:32:53.887Z,10.94
2023-05-02T23:35:55.343Z,11.04
2023-05-02T23:38:56.863Z,11.16
2023-05-02T23:41:58.394Z,11.19
2023-05-02T23:44:59.922Z,11.16
2023-05-02T23:48:01.519Z,11.14
2023-05-02T23:51:02.982Z,11.17
2023-05-02T23:54:04.475Z,11.10
2023-05-02T23:57:05.861Z,10.95
